Big Timber, MT (59011)

7:15 AM MDT on October 01, 2014 (GMT -0600)
S. Boulder-McKenzie Flats | Change Station
CLOSE
Current Station
Personal Weather Station
Location: Big Timber, MT
Elevation: 4840 ft
Nearby Weather Stations

Elev 4840 ft 45.75 °N, 109.96 °W | Updated 4 seconds ago

Mostly Cloudy
Mostly Cloudy
41.0 °F
Feels Like 32 °F
N
17.3
Wind Variable Wind from West
Gusts 17.3 mph

Today
High -- | Low -- °F
--% Chance of Precip.
Yesterday
High -- | Low -- °F
Precip. -- in
7:18 AM 6:59 PM
Waxing Crescent, 47% visible
Pressure 29.97 in
Visibility 10.0 miles
Clouds Overcast 8000 ft
Windchill 32 °F
Dew Point 33 °F
Humidity 73%
Rainfall 0.00 in
Snow Depth 3 in , 1 in , 0 in
UV 0 out of 12
Pollen 3.00 out of 12
Air Quality Not available.
Flu Activity Not available.
METAR KLVM 011253Z AUTO 29005KT 10SM OVC080 05/00 A2997 RMK AO2 SLP147 T00500000

More Conditions Fewer Conditions

Pressure 29.97 in
Visibility 10.0 miles
Clouds Overcast 8000 ft
Windchill 32 °F
Dew Point 33 °F
Humidity 73%
Rainfall 0.00 in
Snow Depth 3 in , 1 in , 0 in
UV 0 out of 12
Pollen 3.00 out of 12
Air Quality Not available.
Flu Activity Not available.
METAR KLVM 011253Z AUTO 29005KT 10SM OVC080 05/00 A2997 RMK AO2 SLP147 T00500000

More Conditions Fewer Conditions

10-Day Weather Forecast

Almanac

Astronomy

Oct. 01, 2014 Rise Set
Actual Time 7:18 AM MDT 6:59 PM MDT
Civil Twilight 6:48 AM MDT 7:29 PM MDT
Nautical Twilight 6:13 AM MDT 8:03 PM MDT
Astronomical Twilight 5:38 AM MDT 8:38 PM MDT
Moon 2:35 PM MDT No Moon Set
Length of Visible Light 12h 40m
Length of Day
11h 41m
Tomorrow will be 3m 11s shorter.
Waxing Crescent, 47% of the Moon is Illuminated
Today
Waxing Crescent
Oct 1
First Quarter
Oct 8
Full
Oct 15
Last Quarter
Oct 23
New

Today's Extremes

State Highs State Lows

Community

WunderPhotos

Upload Photos

1,757,925 photos uploaded!

Nearby

Snow Depth

Station Depth Elevation
Albro Lake 3 in 8300 ft
Sacajawea 1 in 6550 ft
Stringer Creek 0 in 6550 ft
Rocker Peak 0 in 8000 ft
Lubrecht Flume 0 in 4680 ft

Earthquake Activity

City Distance Mag. Time & Date
No recent earthquake activity has been reported nearby.
Minimum magnitude displayed is 2.5.

Coastal Water Temperatures

Place Temperature
No Stations Reporting

Nearby Weather Stations